大分空港の過去48時間の天気

大分空港 (Oita)

現在時刻: 7/17 18:53 JST (7/17 09:53 UTC) 以下の時間は現地時間です。

過去48時間のMETAR気象情報
時間 風向 風速(m/s) 視程 気温(℃) 湿度(%) 気圧(hPa) 天気現象
17 18:00 不定 1 10km以上 27 94 1010
17 17:00 南東 2 10km以上 27 89 1010
17 16:00 南東 2 10km以上 28 84 1011
17 15:00 南東 2 10km以上 29 84 1011
17 14:00 東北東 2 10km以上 28 84 1011
17 13:00 2 10km以上 28 84 1012
17 12:00 東南東 2 10km以上 27 89 1012
17 11:00 3 10km以上 27 89 1012
17 10:00 3 10km以上 27 84 1013
17 09:00 2 10km以上 28 79 1012
17 08:00 2 10km以上 26 89 1013
17 07:00 不定 1 9000m 25 89 1013
RJFO 170900Z VRB02KT 9999 FEW010 BKN/// 27/26 Q1010
RJFO 170800Z 14004KT 100V160 9999 FEW030 SCT/// 27/25 Q1010
RJFO 170700Z 13004KT 9999 FEW030 SCT/// 28/25 Q1011
RJFO 170600Z 13003KT 100V170 9999 FEW030 SCT/// 29/26 Q1011
RJFO 170500Z 07003KT 030V120 9999 FEW030 SCT/// 28/25 Q1011
RJFO 170400Z 08003KT 040V110 9999 FEW030 SCT/// 28/25 Q1012
RJFO 170300Z 11004KT 070V130 9999 FEW030 SCT/// 27/25 Q1012
RJFO 170200Z 09005KT 9999 FEW030 BKN/// 27/25 Q1012
RJFO 170100Z 09005KT 9999 FEW035 BKN/// 27/24 Q1013
RJFO 170000Z 18004KT 9999 FEW035 SCT/// 28/24 Q1012
RJFO 162300Z 19003KT 9999 FEW030 SCT/// 26/24 Q1013
RJFO 162200Z VRB01KT 9000 FEW020 SCT/// 25/23 Q1013